Time;durP1;ratioP1;P1;durP2;ratioP2;P2;SDS_P1;SDS_P2;PMS_P1;PMS_P2;Temp;Humidity;BMP_temperature;BMP_pressure;BME280_temperature;BME280_humidity;BME280_pressure;Samples;Min_cycle;Max_cycle;Signal;HPM_P1;HPM_P2
2024/03/31 00:00:04;;;;;;;65.32;51.33;;;;;;;;;;5106375;28;20028;-37
2024/03/31 00:02:31;;;;;;;59.90;50.92;;;;;;;;;;5104787;28;20099;-46
2024/03/31 00:04:58;;;;;;;74.30;52.25;;;;;;;;;;5105139;28;20020;-37
2024/03/31 00:07:24;;;;;;;67.95;50.88;;;;;;;;;;5104876;28;20016;-38
2024/03/31 00:09:51;;;;;;;64.22;51.75;;;;;;;;;;5105847;28;20020;-39
2024/03/31 00:12:17;;;;;;;66.20;50.63;;;;;;;;;;5105700;28;20028;-41
2024/03/31 00:14:45;;;;;;;61.72;51.22;;;;;;;;;;5105171;28;20020;-42
2024/03/31 00:17:11;;;;;;;64.63;49.17;;;;;;;;;;5104592;28;20020;-39
2024/03/31 00:19:38;;;;;;;66.65;52.33;;;;;;;;;;5105876;28;20020;-40
2024/03/31 00:22:05;;;;;;;65.78;50.60;;;;;;;;;;5105707;28;20028;-44
2024/03/31 00:24:31;;;;;;;64.70;51.72;;;;;;;;;;5105821;28;20045;-46
2024/03/31 00:26:58;;;;;;;76.45;53.03;;;;;;;;;;5105468;28;20279;-43
2024/03/31 00:29:24;;;;;;;79.75;54.78;;;;;;;;;;5105004;28;20063;-42
2024/03/31 00:31:51;;;;;;;83.18;56.40;;;;;;;;;;5105095;28;20028;-41
2024/03/31 00:34:17;;;;;;;75.78;52.92;;;;;;;;;;5105420;28;20024;-41
2024/03/31 00:36:47;;;;;;;77.13;52.80;;;;;;;;;;5104923;28;20020;-40
2024/03/31 00:39:14;;;;;;;75.07;53.85;;;;;;;;;;5105219;28;20034;-40
2024/03/31 00:41:40;;;;;;;68.82;54.40;;;;;;;;;;5105090;28;20058;-40
2024/03/31 00:44:07;;;;;;;62.30;51.75;;;;;;;;;;5105309;28;20026;-41
2024/03/31 00:46:33;;;;;;;66.55;51.50;;;;;;;;;;5104806;28;20019;-40
2024/03/31 00:49:00;;;;;;;68.85;52.53;;;;;;;;;;5105193;28;20019;-40
2024/03/31 00:51:27;;;;;;;62.90;51.70;;;;;;;;;;5104968;28;20043;-43
2024/03/31 00:53:53;;;;;;;66.20;53.08;;;;;;;;;;5104846;28;20243;-41
2024/03/31 00:56:20;;;;;;;92.82;54.72;;;;;;;;;;5104863;28;20050;-39
2024/03/31 00:58:46;;;;;;;68.82;53.50;;;;;;;;;;5104876;28;20203;-42
2024/03/31 01:01:13;;;;;;;98.40;57.05;;;;;;;;;;5104525;28;20044;-39
2024/03/31 01:03:39;;;;;;;77.50;54.20;;;;;;;;;;5104614;28;20026;-42
2024/03/31 01:06:09;;;;;;;73.82;53.00;;;;;;;;;;5104797;28;20028;-39
2024/03/31 01:08:35;;;;;;;75.75;53.15;;;;;;;;;;5104430;28;20260;-45
2024/03/31 01:11:02;;;;;;;69.20;53.20;;;;;;;;;;5104495;28;20020;-42
2024/03/31 01:13:29;;;;;;;59.75;51.60;;;;;;;;;;5104422;28;20016;-43
2024/03/31 01:15:56;;;;;;;59.17;52.50;;;;;;;;;;5104189;28;20317;-45
2024/03/31 01:18:22;;;;;;;59.22;51.80;;;;;;;;;;5104563;28;20312;-49
2024/03/31 01:20:49;;;;;;;58.17;51.58;;;;;;;;;;5104146;28;20309;-46
2024/03/31 01:23:18;;;;;;;57.38;50.92;;;;;;;;;;5104066;28;20015;-47
2024/03/31 01:25:45;;;;;;;57.63;51.47;;;;;;;;;;5104212;28;20024;-43
2024/03/31 01:28:11;;;;;;;58.92;52.38;;;;;;;;;;5104109;28;20022;-43
2024/03/31 01:30:38;;;;;;;58.17;51.97;;;;;;;;;;5103929;28;20047;-45
2024/03/31 01:33:05;;;;;;;60.50;52.88;;;;;;;;;;5104361;28;20027;-46
2024/03/31 01:35:32;;;;;;;57.70;51.58;;;;;;;;;;5104600;28;20020;-47
2024/03/31 01:37:58;;;;;;;58.20;51.78;;;;;;;;;;5104035;28;20069;-50
2024/03/31 01:40:25;;;;;;;59.00;52.67;;;;;;;;;;5103868;28;20036;-45
2024/03/31 01:42:51;;;;;;;58.00;52.05;;;;;;;;;;5103979;28;20074;-39
2024/03/31 01:45:18;;;;;;;61.97;53.40;;;;;;;;;;5104350;28;20020;-41
2024/03/31 01:47:45;;;;;;;57.08;51.40;;;;;;;;;;5103863;28;20024;-37
2024/03/31 01:50:12;;;;;;;57.78;50.92;;;;;;;;;;5104441;28;20027;-41
2024/03/31 01:52:38;;;;;;;56.95;50.72;;;;;;;;;;5103958;28;20048;-44
2024/03/31 01:55:05;;;;;;;55.58;49.83;;;;;;;;;;5104148;28;20259;-39
2024/03/31 01:57:32;;;;;;;57.03;50.58;;;;;;;;;;5103830;28;20342;-48
2024/03/31 01:59:58;;;;;;;66.50;48.45;;;;;;;;;;5104313;28;20105;-40
2024/03/31 02:02:25;;;;;;;57.33;49.20;;;;;;;;;;5103836;28;20229;-41
2024/03/31 02:04:51;;;;;;;62.75;49.30;;;;;;;;;;5104708;28;20204;-41
2024/03/31 02:07:18;;;;;;;59.80;47.08;;;;;;;;;;5103930;28;20024;-39
2024/03/31 02:09:44;;;;;;;66.68;48.78;;;;;;;;;;5104031;28;20095;-45
2024/03/31 02:12:11;;;;;;;65.30;50.58;;;;;;;;;;5103914;28;20024;-45
2024/03/31 02:14:38;;;;;;;55.67;49.78;;;;;;;;;;5104088;28;20212;-47
2024/03/31 02:17:04;;;;;;;56.72;50.45;;;;;;;;;;5103684;28;20020;-43
2024/03/31 02:19:31;;;;;;;55.85;48.97;;;;;;;;;;5103986;28;20032;-44
2024/03/31 02:21:58;;;;;;;56.92;50.60;;;;;;;;;;5103633;28;20024;-39
2024/03/31 02:24:24;;;;;;;56.72;50.03;;;;;;;;;;5103773;28;20051;-38
2024/03/31 02:26:51;;;;;;;57.58;51.50;;;;;;;;;;5103833;28;20020;-42
2024/03/31 02:29:18;;;;;;;60.72;52.30;;;;;;;;;;5103681;28;20044;-38
2024/03/31 02:31:45;;;;;;;58.97;52.47;;;;;;;;;;5103876;28;20428;-38
2024/03/31 02:34:14;;;;;;;58.88;52.55;;;;;;;;;;5103905;28;20304;-43
2024/03/31 02:36:40;;;;;;;63.95;55.15;;;;;;;;;;5103546;28;20020;-41
2024/03/31 02:39:07;;;;;;;64.40;52.40;;;;;;;;;;5103436;28;20032;-40
2024/03/31 02:41:33;;;;;;;62.75;51.90;;;;;;;;;;5103514;28;20028;-41
2024/03/31 02:44:00;;;;;;;59.65;51.60;;;;;;;;;;5103648;28;20062;-42
2024/03/31 02:46:26;;;;;;;62.47;49.83;;;;;;;;;;5103402;28;20083;-41
2024/03/31 02:48:53;;;;;;;61.25;49.80;;;;;;;;;;5103693;28;20020;-40
2024/03/31 02:51:19;;;;;;;59.50;51.50;;;;;;;;;;5103735;28;20028;-42
2024/03/31 02:53:46;;;;;;;57.22;48.72;;;;;;;;;;5107197;28;20032;-43
2024/03/31 02:56:12;;;;;;;59.00;48.17;;;;;;;;;;5107208;28;20059;-39
2024/03/31 02:58:39;;;;;;;55.20;48.53;;;;;;;;;;5107241;28;20020;-44
2024/03/31 03:01:06;;;;;;;59.50;47.35;;;;;;;;;;5106866;28;20024;-44
2024/03/31 03:03:33;;;;;;;52.75;47.50;;;;;;;;;;5107388;28;20193;-48
2024/03/31 03:06:00;;;;;;;51.80;46.30;;;;;;;;;;5107051;28;20024;-36
2024/03/31 03:08:26;;;;;;;51.67;45.88;;;;;;;;;;5106974;28;20057;-41
2024/03/31 03:10:53;;;;;;;54.45;45.70;;;;;;;;;;5106922;28;20028;-40
2024/03/31 03:13:20;;;;;;;49.95;44.85;;;;;;;;;;5106942;28;20020;-40
2024/03/31 03:15:47;;;;;;;51.08;45.75;;;;;;;;;;5107275;28;20316;-42
2024/03/31 03:18:17;;;;;;;49.60;44.30;;;;;;;;;;5107050;28;20024;-40
2024/03/31 03:20:43;;;;;;;49.63;43.38;;;;;;;;;;5106756;28;20035;-43
2024/03/31 03:23:10;;;;;;;48.38;43.50;;;;;;;;;;5107054;28;20323;-40
2024/03/31 03:25:37;;;;;;;51.90;44.63;;;;;;;;;;5106608;28;20083;-39
2024/03/31 03:28:03;;;;;;;49.80;44.42;;;;;;;;;;5106725;28;20020;-40
2024/03/31 03:30:31;;;;;;;54.03;46.25;;;;;;;;;;5106579;28;20107;-37
2024/03/31 03:32:58;;;;;;;50.13;44.92;;;;;;;;;;5106763;28;20020;-41
2024/03/31 03:35:24;;;;;;;49.83;44.95;;;;;;;;;;5107015;28;20338;-44
2024/03/31 03:37:51;;;;;;;53.97;47.92;;;;;;;;;;5106416;28;20316;-42
2024/03/31 03:40:17;;;;;;;49.50;44.55;;;;;;;;;;5106663;28;20300;-39
2024/03/31 03:42:44;;;;;;;49.47;44.53;;;;;;;;;;5106320;28;20024;-39
2024/03/31 03:45:10;;;;;;;51.35;45.20;;;;;;;;;;5106722;28;20069;-37
2024/03/31 03:47:37;;;;;;;52.90;45.83;;;;;;;;;;5106015;28;20020;-37
2024/03/31 03:50:04;;;;;;;51.35;45.15;;;;;;;;;;5106600;28;20069;-38
2024/03/31 03:52:30;;;;;;;54.67;44.25;;;;;;;;;;5106106;28;20027;-39
2024/03/31 03:54:57;;;;;;;50.25;44.90;;;;;;;;;;5106306;28;20091;-42
2024/03/31 03:57:23;;;;;;;49.47;44.42;;;;;;;;;;5105996;28;20024;-40
2024/03/31 03:59:50;;;;;;;50.80;45.55;;;;;;;;;;5106362;28;20027;-39
2024/03/31 04:02:16;;;;;;;50.88;45.53;;;;;;;;;;5105707;28;20086;-41
2024/03/31 04:04:43;;;;;;;49.90;44.78;;;;;;;;;;5105333;28;20195;-41
2024/03/31 04:07:10;;;;;;;49.65;44.33;;;;;;;;;;5106198;28;20218;-39
2024/03/31 04:09:36;;;;;;;50.67;45.60;;;;;;;;;;5105967;28;20024;-38
2024/03/31 04:12:03;;;;;;;50.25;44.95;;;;;;;;;;5105665;28;20084;-41
2024/03/31 04:14:29;;;;;;;50.65;45.20;;;;;;;;;;5106000;28;20028;-40
2024/03/31 04:16:56;;;;;;;48.38;43.45;;;;;;;;;;5105517;28;20087;-41
2024/03/31 04:19:22;;;;;;;50.33;45.28;;;;;;;;;;5105673;28;20035;-40
2024/03/31 04:21:49;;;;;;;50.83;45.65;;;;;;;;;;5105624;28;20088;-43
2024/03/31 04:24:16;;;;;;;49.65;44.50;;;;;;;;;;5105637;28;20348;-42
2024/03/31 04:26:42;;;;;;;50.72;45.58;;;;;;;;;;5105532;28;20080;-38
2024/03/31 04:29:09;;;;;;;51.88;46.40;;;;;;;;;;5105289;28;20044;-39
2024/03/31 04:31:36;;;;;;;53.10;47.60;;;;;;;;;;5105475;28;20032;-43
2024/03/31 04:34:02;;;;;;;54.03;48.67;;;;;;;;;;5105260;28;20091;-39
2024/03/31 04:36:29;;;;;;;53.90;48.75;;;;;;;;;;5105271;28;20228;-44
2024/03/31 04:38:55;;;;;;;53.40;47.92;;;;;;;;;;5105386;28;20282;-42
2024/03/31 04:41:22;;;;;;;55.38;49.60;;;;;;;;;;5104999;28;20197;-44
2024/03/31 04:43:50;;;;;;;55.15;49.75;;;;;;;;;;5105236;28;20012;-41
2024/03/31 04:46:17;;;;;;;53.92;48.85;;;;;;;;;;5105403;28;20024;-46
2024/03/31 04:48:43;;;;;;;53.50;48.35;;;;;;;;;;5105004;28;20061;-41
2024/03/31 04:51:10;;;;;;;53.80;48.53;;;;;;;;;;5105018;28;20058;-42
2024/03/31 04:53:41;;;;;;;54.58;49.15;;;;;;;;;;5104945;28;20019;-45
2024/03/31 04:56:08;;;;;;;54.28;48.88;;;;;;;;;;5104785;28;20387;-46
2024/03/31 04:58:34;;;;;;;54.63;49.10;;;;;;;;;;5104846;28;20020;-42
2024/03/31 05:01:01;;;;;;;52.63;47.28;;;;;;;;;;5104724;28;20220;-41
2024/03/31 05:03:27;;;;;;;52.95;47.85;;;;;;;;;;5104606;28;20314;-45
2024/03/31 05:05:54;;;;;;;52.60;47.45;;;;;;;;;;5104803;28;20220;-42
2024/03/31 05:08:20;;;;;;;52.97;47.58;;;;;;;;;;5104956;28;20020;-46
2024/03/31 05:11:00;;;;;;;52.08;47.13;;;;;;;;;;5104529;28;20324;-41
2024/03/31 05:13:27;;;;;;;53.28;47.55;;;;;;;;;;5104633;28;20189;-44
2024/03/31 05:16:00;;;;;;;52.50;47.25;;;;;;;;;;5103405;28;20019;-41
2024/03/31 05:18:27;;;;;;;51.55;46.53;;;;;;;;;;5104494;28;20308;-42
2024/03/31 05:20:54;;;;;;;53.03;47.60;;;;;;;;;;5104261;28;20039;-41
2024/03/31 05:23:21;;;;;;;52.75;47.55;;;;;;;;;;5104268;28;20244;-42
2024/03/31 05:25:48;;;;;;;51.63;46.58;;;;;;;;;;5104341;28;20189;-42
2024/03/31 05:28:14;;;;;;;53.55;48.35;;;;;;;;;;5104303;28;20019;-41
2024/03/31 05:30:41;;;;;;;52.78;47.17;;;;;;;;;;5103988;28;20044;-39
2024/03/31 05:33:07;;;;;;;52.17;47.10;;;;;;;;;;5104358;28;20020;-36
2024/03/31 05:35:34;;;;;;;51.67;46.75;;;;;;;;;;5104790;28;20070;-39
2024/03/31 05:38:00;;;;;;;50.33;45.60;;;;;;;;;;5104111;28;20020;-41
2024/03/31 05:40:27;;;;;;;52.58;47.22;;;;;;;;;;5104691;28;20024;-40
2024/03/31 05:42:53;;;;;;;50.38;45.38;;;;;;;;;;5104174;28;20028;-42
2024/03/31 05:45:20;;;;;;;52.95;47.65;;;;;;;;;;5104489;28;20027;-42
2024/03/31 05:47:47;;;;;;;52.78;47.67;;;;;;;;;;5104159;28;20061;-41
2024/03/31 05:50:13;;;;;;;51.75;46.88;;;;;;;;;;5104568;28;20027;-46
2024/03/31 05:52:40;;;;;;;50.35;45.63;;;;;;;;;;5104082;28;20020;-47
2024/03/31 05:55:06;;;;;;;51.22;46.05;;;;;;;;;;5104116;28;20040;-49
2024/03/31 05:57:33;;;;;;;51.33;46.22;;;;;;;;;;5104002;28;20031;-44
2024/03/31 05:59:59;;;;;;;53.78;48.17;;;;;;;;;;5104325;28;20038;-44
2024/03/31 06:02:26;;;;;;;52.63;47.17;;;;;;;;;;5104122;28;20031;-43
2024/03/31 06:04:57;;;;;;;54.17;49.03;;;;;;;;;;5104387;28;20382;-49
2024/03/31 06:07:23;;;;;;;50.15;45.58;;;;;;;;;;5103810;28;20048;-44
2024/03/31 06:09:50;;;;;;;52.50;47.30;;;;;;;;;;5104505;28;20211;-47
2024/03/31 06:12:16;;;;;;;50.42;45.55;;;;;;;;;;5103936;28;20257;-43
2024/03/31 06:14:43;;;;;;;50.78;45.72;;;;;;;;;;5104308;28;20149;-42
2024/03/31 06:17:10;;;;;;;52.03;46.80;;;;;;;;;;5103725;28;20111;-47
2024/03/31 06:19:36;;;;;;;52.50;47.30;;;;;;;;;;5103921;28;20016;-50
2024/03/31 06:22:03;;;;;;;49.90;45.08;;;;;;;;;;5103711;28;20028;-44
2024/03/31 06:24:29;;;;;;;50.17;45.47;;;;;;;;;;5103420;28;20254;-44
2024/03/31 06:26:56;;;;;;;50.70;45.75;;;;;;;;;;5104930;28;20020;-38
2024/03/31 06:29:22;;;;;;;50.00;45.38;;;;;;;;;;5107688;28;20073;-38
2024/03/31 06:31:49;;;;;;;50.78;45.55;;;;;;;;;;5107530;28;20023;-41
2024/03/31 06:34:16;;;;;;;49.88;44.90;;;;;;;;;;5107738;28;20027;-43
2024/03/31 06:36:42;;;;;;;49.28;44.47;;;;;;;;;;5107633;28;20316;-41
2024/03/31 06:39:09;;;;;;;49.50;44.70;;;;;;;;;;5107661;28;20028;-41
2024/03/31 06:41:35;;;;;;;49.22;44.60;;;;;;;;;;5107397;28;20065;-47
2024/03/31 06:44:03;;;;;;;50.38;45.47;;;;;;;;;;5107652;28;20047;-47
2024/03/31 06:46:29;;;;;;;50.08;44.72;;;;;;;;;;5107199;28;20024;-46
2024/03/31 06:48:56;;;;;;;48.40;43.80;;;;;;;;;;5107566;28;20078;-45
2024/03/31 06:51:24;;;;;;;50.35;45.42;;;;;;;;;;5107333;28;20048;-43
2024/03/31 06:53:50;;;;;;;50.33;45.47;;;;;;;;;;5106986;28;20028;-46
2024/03/31 06:56:18;;;;;;;49.80;44.83;;;;;;;;;;5107014;28;20028;-45
2024/03/31 06:58:45;;;;;;;49.83;45.10;;;;;;;;;;5107326;28;20308;-39
2024/03/31 07:01:11;;;;;;;49.05;44.60;;;;;;;;;;5106842;28;20246;-39
2024/03/31 07:03:38;;;;;;;49.03;44.15;;;;;;;;;;5107090;28;20047;-42
2024/03/31 07:06:05;;;;;;;48.17;43.80;;;;;;;;;;5107077;28;20065;-44
2024/03/31 07:08:31;;;;;;;50.83;45.80;;;;;;;;;;5106847;28;20092;-45
2024/03/31 07:10:58;;;;;;;48.60;43.88;;;;;;;;;;5107035;28;20024;-41
2024/03/31 07:13:25;;;;;;;48.45;43.97;;;;;;;;;;5106853;28;20023;-43
2024/03/31 07:15:51;;;;;;;47.53;43.03;;;;;;;;;;5106711;28;20023;-41
2024/03/31 07:18:18;;;;;;;47.85;43.50;;;;;;;;;;5106761;28;20100;-40
2024/03/31 07:20:44;;;;;;;49.05;44.45;;;;;;;;;;5106734;28;20035;-50
2024/03/31 07:23:11;;;;;;;48.53;44.03;;;;;;;;;;5106546;28;20016;-40
2024/03/31 07:25:37;;;;;;;49.45;44.85;;;;;;;;;;5106648;28;20262;-49
2024/03/31 07:28:04;;;;;;;47.47;43.15;;;;;;;;;;5106681;28;20253;-44
2024/03/31 07:30:31;;;;;;;50.25;44.95;;;;;;;;;;5106529;28;20043;-47
2024/03/31 07:32:57;;;;;;;48.40;43.60;;;;;;;;;;5106712;28;20088;-46
2024/03/31 07:35:24;;;;;;;48.92;44.03;;;;;;;;;;5106841;28;20304;-50
2024/03/31 07:37:51;;;;;;;48.72;44.03;;;;;;;;;;5105825;28;20032;-45
2024/03/31 07:40:17;;;;;;;49.47;44.78;;;;;;;;;;5106203;28;20101;-44
2024/03/31 07:42:44;;;;;;;49.30;44.67;;;;;;;;;;5106362;28;20215;-55
2024/03/31 07:45:11;;;;;;;49.10;44.50;;;;;;;;;;5107122;28;20047;-49
2024/03/31 07:47:37;;;;;;;50.35;45.35;;;;;;;;;;5106112;28;20193;-46
2024/03/31 07:50:04;;;;;;;49.95;44.63;;;;;;;;;;5106601;28;20296;-45
2024/03/31 07:52:31;;;;;;;49.80;45.08;;;;;;;;;;5106397;28;20095;-45
2024/03/31 07:54:57;;;;;;;50.10;45.08;;;;;;;;;;5106331;28;20034;-39
2024/03/31 07:57:24;;;;;;;51.85;46.42;;;;;;;;;;5106068;28;20103;-39
2024/03/31 07:59:50;;;;;;;50.92;45.58;;;;;;;;;;5106665;28;20043;-38
2024/03/31 08:02:17;;;;;;;51.30;46.03;;;;;;;;;;5105751;28;20335;-40
2024/03/31 08:04:45;;;;;;;51.95;46.63;;;;;;;;;;5106272;28;20048;-41
2024/03/31 08:07:11;;;;;;;51.88;46.63;;;;;;;;;;5105784;28;20020;-42
2024/03/31 08:09:38;;;;;;;51.10;46.08;;;;;;;;;;5105930;28;20023;-42
2024/03/31 08:12:05;;;;;;;50.53;45.65;;;;;;;;;;5105841;28;20028;-42
2024/03/31 08:14:31;;;;;;;50.08;45.00;;;;;;;;;;5105858;28;20031;-47
2024/03/31 08:16:58;;;;;;;50.10;45.20;;;;;;;;;;5105451;28;20083;-45
2024/03/31 08:19:25;;;;;;;52.85;46.53;;;;;;;;;;5105772;28;20024;-44
2024/03/31 08:21:51;;;;;;;52.05;45.58;;;;;;;;;;5105392;28;20262;-44
2024/03/31 08:24:18;;;;;;;62.40;45.70;;;;;;;;;;5105508;28;20020;-46
2024/03/31 08:26:46;;;;;;;51.53;45.92;;;;;;;;;;5105560;28;20027;-46
2024/03/31 08:29:14;;;;;;;50.42;45.30;;;;;;;;;;5105317;28;20039;-44
2024/03/31 08:31:40;;;;;;;50.88;45.72;;;;;;;;;;5105191;28;20327;-43
2024/03/31 08:34:07;;;;;;;51.00;45.95;;;;;;;;;;5105553;28;20204;-45
2024/03/31 08:36:33;;;;;;;49.88;44.83;;;;;;;;;;5105252;28;20065;-52
2024/03/31 08:39:00;;;;;;;49.42;44.72;;;;;;;;;;5105254;28;20027;-43
2024/03/31 08:41:32;;;;;;;51.08;46.05;;;;;;;;;;5105123;28;20024;-44
2024/03/31 08:44:00;;;;;;;48.88;44.28;;;;;;;;;;5105189;28;20028;-44
2024/03/31 08:46:27;;;;;;;48.88;44.10;;;;;;;;;;5105246;28;20020;-45
2024/03/31 08:48:54;;;;;;;49.50;44.35;;;;;;;;;;5105237;28;20020;-43
2024/03/31 08:51:20;;;;;;;48.60;43.83;;;;;;;;;;5105079;28;20020;-49
2024/03/31 08:53:48;;;;;;;48.85;44.28;;;;;;;;;;5104839;28;20173;-47
2024/03/31 08:56:14;;;;;;;50.42;44.22;;;;;;;;;;5104977;28;20032;-44
2024/03/31 08:58:42;;;;;;;48.90;43.35;;;;;;;;;;5104992;28;20030;-44
2024/03/31 09:01:11;;;;;;;49.50;44.28;;;;;;;;;;5104550;28;20063;-50
2024/03/31 09:03:38;;;;;;;46.80;41.85;;;;;;;;;;5104725;28;20117;-49
2024/03/31 09:06:05;;;;;;;46.45;41.78;;;;;;;;;;5104833;28;20020;-49
2024/03/31 09:08:31;;;;;;;45.95;41.50;;;;;;;;;;5104544;28;20027;-42
2024/03/31 09:10:58;;;;;;;45.05;40.60;;;;;;;;;;5104595;28;20020;-42
2024/03/31 09:13:25;;;;;;;43.00;38.85;;;;;;;;;;5104768;28;20032;-56
2024/03/31 09:15:51;;;;;;;42.53;38.53;;;;;;;;;;5104405;28;20073;-45
2024/03/31 09:18:18;;;;;;;41.10;37.05;;;;;;;;;;5104528;28;20023;-44
2024/03/31 09:20:44;;;;;;;39.13;35.13;;;;;;;;;;5104382;28;20024;-48
2024/03/31 09:23:13;;;;;;;38.60;35.08;;;;;;;;;;5104231;28;20023;-57
2024/03/31 09:25:39;;;;;;;37.17;33.67;;;;;;;;;;5104410;28;20047;-52
2024/03/31 09:28:06;;;;;;;36.53;33.15;;;;;;;;;;5104502;28;20020;-50
2024/03/31 09:30:32;;;;;;;37.25;33.65;;;;;;;;;;5104189;28;20111;-46
2024/03/31 09:32:59;;;;;;;35.15;31.98;;;;;;;;;;5104395;28;20036;-49
2024/03/31 09:35:26;;;;;;;36.08;32.88;;;;;;;;;;5104721;28;20080;-47
2024/03/31 09:37:52;;;;;;;36.17;32.65;;;;;;;;;;5104177;28;20015;-48
2024/03/31 09:40:19;;;;;;;36.25;32.63;;;;;;;;;;5104608;28;20023;-49
2024/03/31 09:42:46;;;;;;;36.08;32.55;;;;;;;;;;5104077;28;20023;-48
2024/03/31 09:45:13;;;;;;;35.20;31.90;;;;;;;;;;5104595;28;20043;-50
2024/03/31 09:47:48;;;;;;;36.83;33.25;;;;;;;;;;5104025;28;20020;-48
2024/03/31 09:50:27;;;;;;;35.95;32.55;;;;;;;;;;5104443;28;20024;-49
2024/03/31 09:53:01;;;;;;;35.70;32.50;;;;;;;;;;5103936;28;20358;-42
2024/03/31 09:55:28;;;;;;;35.50;32.03;;;;;;;;;;5104554;28;20034;-48
2024/03/31 09:57:57;;;;;;;36.00;32.45;;;;;;;;;;5103861;28;20246;-49
2024/03/31 10:00:23;;;;;;;36.83;32.97;;;;;;;;;;5104474;28;20079;-46
2024/03/31 10:02:54;;;;;;;39.25;31.83;;;;;;;;;;5106698;28;20028;-44
2024/03/31 10:05:50;;;;;;;36.22;32.83;;;;;;;;;;5108564;28;20024;-45
2024/03/31 10:08:17;;;;;;;36.28;32.35;;;;;;;;;;5091548;28;20036;-52
2024/03/31 10:10:44;;;;;;;36.80;33.03;;;;;;;;;;5107959;28;20020;-50
2024/03/31 10:13:11;;;;;;;37.08;32.97;;;;;;;;;;5108075;28;20087;-43
2024/03/31 10:15:40;;;;;;;35.78;32.22;;;;;;;;;;5107995;28;20085;-45
2024/03/31 10:18:08;;;;;;;36.13;32.55;;;;;;;;;;5107781;28;20083;-48
2024/03/31 10:20:35;;;;;;;36.75;32.92;;;;;;;;;;5108660;28;20020;-45
2024/03/31 10:23:01;;;;;;;34.88;31.38;;;;;;;;;;5108065;28;20307;-42
2024/03/31 10:25:28;;;;;;;37.78;33.30;;;;;;;;;;5107656;28;20050;-50
2024/03/31 10:27:56;;;;;;;39.80;31.58;;;;;;;;;;5108410;28;20031;-48
2024/03/31 10:30:29;;;;;;;34.45;30.90;;;;;;;;;;5107727;28;20044;-43
2024/03/31 10:32:56;;;;;;;38.80;32.50;;;;;;;;;;5107882;28;20211;-52
2024/03/31 10:35:27;;;;;;;35.95;30.88;;;;;;;;;;5108106;28;20028;-44
2024/03/31 10:37:54;;;;;;;34.53;31.05;;;;;;;;;;5107804;28;20024;-43
2024/03/31 10:40:25;;;;;;;34.85;31.17;;;;;;;;;;5107905;28;20250;-43
2024/03/31 10:42:52;;;;;;;37.95;30.25;;;;;;;;;;5107379;28;20058;-45
2024/03/31 10:45:19;;;;;;;39.80;30.13;;;;;;;;;;5107777;28;20020;-48
2024/03/31 10:47:45;;;;;;;45.10;31.83;;;;;;;;;;5107477;28;20064;-47
2024/03/31 10:50:12;;;;;;;34.30;30.48;;;;;;;;;;5107805;28;20028;-48
2024/03/31 10:52:39;;;;;;;37.47;30.27;;;;;;;;;;5107179;28;20047;-49
2024/03/31 10:55:09;;;;;;;33.63;30.02;;;;;;;;;;5107605;28;20024;-49
2024/03/31 10:57:40;;;;;;;39.65;31.42;;;;;;;;;;5107363;28;20063;-48
2024/03/31 11:00:07;;;;;;;40.03;30.50;;;;;;;;;;5107412;28;20016;-48
2024/03/31 11:02:35;;;;;;;39.15;30.85;;;;;;;;;;5107027;28;20020;-50
2024/03/31 11:05:06;;;;;;;36.92;30.33;;;;;;;;;;5107376;28;20057;-48
2024/03/31 11:07:35;;;;;;;51.67;31.33;;;;;;;;;;5106837;28;20093;-56
2024/03/31 11:10:02;;;;;;;36.75;30.65;;;;;;;;;;5107455;28;20016;-47
2024/03/31 11:12:28;;;;;;;35.83;30.88;;;;;;;;;;5107053;28;20050;-47
2024/03/31 11:14:56;;;;;;;34.83;31.35;;;;;;;;;;5107107;28;20315;-50
2024/03/31 11:17:23;;;;;;;41.17;31.52;;;;;;;;;;5106853;28;20032;-48
2024/03/31 11:19:51;;;;;;;36.22;30.42;;;;;;;;;;5107743;28;20096;-51
2024/03/31 11:22:21;;;;;;;68.72;33.03;;;;;;;;;;5106552;28;20036;-47
2024/03/31 11:24:48;;;;;;;54.83;31.75;;;;;;;;;;5106666;28;20024;-48
2024/03/31 11:27:14;;;;;;;45.05;30.92;;;;;;;;;;5106674;28;20024;-48
2024/03/31 11:29:42;;;;;;;38.95;31.08;;;;;;;;;;5106329;28;20044;-49
2024/03/31 11:32:09;;;;;;;40.17;31.15;;;;;;;;;;5106624;28;20024;-50
2024/03/31 11:34:36;;;;;;;38.10;32.00;;;;;;;;;;5106745;28;20027;-49
2024/03/31 11:37:06;;;;;;;33.80;30.23;;;;;;;;;;5106338;28;20020;-48
2024/03/31 11:39:35;;;;;;;36.15;31.95;;;;;;;;;;5106688;28;20054;-48
2024/03/31 11:42:02;;;;;;;36.17;32.25;;;;;;;;;;5106336;28;20024;-54
2024/03/31 11:44:32;;;;;;;41.45;32.05;;;;;;;;;;5106493;28;20015;-48
2024/03/31 11:47:02;;;;;;;38.25;33.17;;;;;;;;;;5106366;28;20062;-41
2024/03/31 11:49:29;;;;;;;38.53;33.85;;;;;;;;;;5106299;28;20024;-45
2024/03/31 11:51:57;;;;;;;40.63;33.88;;;;;;;;;;5106271;28;20052;-43
2024/03/31 11:54:25;;;;;;;38.20;32.22;;;;;;;;;;5106371;28;20024;-47
2024/03/31 11:56:51;;;;;;;39.20;34.78;;;;;;;;;;5105836;28;20279;-54
2024/03/31 11:59:19;;;;;;;38.05;34.00;;;;;;;;;;5106289;28;20061;-46
2024/03/31 12:01:46;;;;;;;38.45;34.38;;;;;;;;;;5105996;28;20035;-50
2024/03/31 12:04:19;;;;;;;39.17;34.90;;;;;;;;;;5105973;28;20016;-51
2024/03/31 12:06:46;;;;;;;39.00;34.80;;;;;;;;;;5105809;28;20061;-42
2024/03/31 12:09:13;;;;;;;38.55;34.53;;;;;;;;;;5105961;28;20023;-50
2024/03/31 12:11:39;;;;;;;48.83;36.03;;;;;;;;;;5105595;28;20217;-49
2024/03/31 12:14:07;;;;;;;42.38;35.67;;;;;;;;;;5105795;28;20204;-41
2024/03/31 12:16:34;;;;;;;38.75;34.78;;;;;;;;;;5105527;28;20039;-42
2024/03/31 12:19:01;;;;;;;44.30;35.38;;;;;;;;;;5105561;28;20300;-44
2024/03/31 12:21:28;;;;;;;42.40;36.45;;;;;;;;;;5105510;28;20244;-46
2024/03/31 12:23:56;;;;;;;47.90;36.10;;;;;;;;;;5105501;28;20285;-42
2024/03/31 12:26:22;;;;;;;42.63;35.08;;;;;;;;;;5105116;28;20031;-44
2024/03/31 12:28:49;;;;;;;45.67;34.95;;;;;;;;;;5105591;28;20028;-43
2024/03/31 12:31:17;;;;;;;41.15;36.63;;;;;;;;;;5105447;28;20035;-44
2024/03/31 12:33:44;;;;;;;39.13;35.03;;;;;;;;;;5105233;28;20016;-50
2024/03/31 12:36:11;;;;;;;38.97;35.00;;;;;;;;;;5105229;28;20073;-50
2024/03/31 12:38:38;;;;;;;39.20;34.88;;;;;;;;;;5105311;28;20024;-43
2024/03/31 12:41:05;;;;;;;40.40;35.85;;;;;;;;;;5105282;28;20027;-44
2024/03/31 12:43:31;;;;;;;40.58;35.67;;;;;;;;;;5105170;28;20023;-43
2024/03/31 12:45:58;;;;;;;39.83;35.15;;;;;;;;;;5105236;28;20016;-43
2024/03/31 12:48:25;;;;;;;39.10;35.00;;;;;;;;;;5104970;28;20016;-44
2024/03/31 12:50:52;;;;;;;39.22;35.20;;;;;;;;;;5105209;28;20032;-44
2024/03/31 12:53:19;;;;;;;40.50;35.08;;;;;;;;;;5104989;28;20305;-42
2024/03/31 12:55:47;;;;;;;39.40;35.33;;;;;;;;;;5105042;28;20051;-49
2024/03/31 12:58:14;;;;;;;43.70;34.88;;;;;;;;;;5104795;28;20024;-48
2024/03/31 13:00:40;;;;;;;37.95;33.95;;;;;;;;;;5104961;28;20028;-51
2024/03/31 13:03:10;;;;;;;39.83;35.60;;;;;;;;;;5104784;28;20069;-48
2024/03/31 13:05:38;;;;;;;37.53;33.63;;;;;;;;;;5104798;28;20036;-47
2024/03/31 13:08:14;;;;;;;38.15;34.05;;;;;;;;;;5104817;28;20015;-48
2024/03/31 13:10:41;;;;;;;39.58;35.47;;;;;;;;;;5104579;28;20024;-45
2024/03/31 13:13:11;;;;;;;37.67;34.05;;;;;;;;;;5104729;28;20246;-52
2024/03/31 13:15:37;;;;;;;39.53;35.40;;;;;;;;;;5104860;28;20032;-46
2024/03/31 13:18:04;;;;;;;39.38;35.45;;;;;;;;;;5104656;28;20020;-42
2024/03/31 13:20:34;;;;;;;36.90;33.42;;;;;;;;;;5104896;28;20020;-45
2024/03/31 13:23:01;;;;;;;40.00;35.03;;;;;;;;;;5104474;28;20091;-48
2024/03/31 13:25:28;;;;;;;37.75;34.05;;;;;;;;;;5104725;28;20035;-49
2024/03/31 13:27:55;;;;;;;39.03;35.15;;;;;;;;;;5104346;28;20025;-42
2024/03/31 13:30:22;;;;;;;39.20;35.30;;;;;;;;;;5104193;28;20228;-48
2024/03/31 13:32:49;;;;;;;38.80;34.67;;;;;;;;;;5101520;28;20056;-41
2024/03/31 13:35:15;;;;;;;37.30;33.80;;;;;;;;;;5096351;28;20016;-39
2024/03/31 13:37:42;;;;;;;37.83;33.80;;;;;;;;;;5103504;28;20083;-48
2024/03/31 13:40:10;;;;;;;39.80;33.85;;;;;;;;;;5104480;28;20024;-39
2024/03/31 13:42:36;;;;;;;39.25;35.03;;;;;;;;;;5104142;28;20027;-42
2024/03/31 13:45:03;;;;;;;41.65;34.53;;;;;;;;;;5104703;28;20028;-47
2024/03/31 13:47:30;;;;;;;42.03;34.45;;;;;;;;;;5104020;28;20024;-41
2024/03/31 13:49:56;;;;;;;38.45;34.60;;;;;;;;;;5104560;28;20011;-39
2024/03/31 13:52:24;;;;;;;37.75;34.05;;;;;;;;;;5104253;28;20031;-39
2024/03/31 13:54:50;;;;;;;37.40;33.75;;;;;;;;;;5104300;28;20275;-44
2024/03/31 13:57:17;;;;;;;38.53;34.05;;;;;;;;;;5104045;28;20054;-43
2024/03/31 13:59:44;;;;;;;36.90;33.17;;;;;;;;;;5104397;28;20043;-47
2024/03/31 14:02:11;;;;;;;38.03;34.05;;;;;;;;;;5103852;28;20028;-48
2024/03/31 14:04:37;;;;;;;38.05;34.42;;;;;;;;;;5104285;28;20292;-44
2024/03/31 14:07:04;;;;;;;36.30;32.55;;;;;;;;;;5103236;28;20024;-36
2024/03/31 14:09:30;;;;;;;36.38;32.72;;;;;;;;;;5103965;28;20024;-41
2024/03/31 14:11:57;;;;;;;37.80;33.80;;;;;;;;;;5104115;28;20031;-38
2024/03/31 14:14:24;;;;;;;36.17;32.53;;;;;;;;;;5104022;28;20020;-41